createdAt,value
2019-03-29T00:01:51.253Z,103445.91
2019-03-29T00:04:26.252Z,103447.73
2019-03-29T00:07:00.623Z,103454.58
2019-03-29T00:09:35.200Z,103450.36
2019-03-29T00:12:09.501Z,103443.35
2019-03-29T00:14:43.738Z,103439.77
2019-03-29T00:17:18.334Z,103441.13
2019-03-29T00:19:52.510Z,103438.66
2019-03-29T00:22:27.058Z,103439.92
2019-03-29T00:25:01.604Z,103438.48
2019-03-29T00:27:35.895Z,103436.94
2019-03-29T00:30:10.304Z,103436.94
2019-03-29T00:32:44.595Z,103433.39
2019-03-29T00:35:18.837Z,103434.34
2019-03-29T00:37:55.646Z,103428.46
2019-03-29T00:40:29.460Z,103426.12
2019-03-29T00:43:03.804Z,103428.26
2019-03-29T00:45:38.307Z,103429.53
2019-03-29T00:48:12.888Z,103418.80
2019-03-29T00:50:47.129Z,103421.78
2019-03-29T00:53:21.752Z,103417.52
2019-03-29T00:55:55.998Z,103411.63
2019-03-29T00:58:30.270Z,103412.98
2019-03-29T01:01:04.604Z,103415.05
2019-03-29T01:03:38.893Z,103409.88
2019-03-29T01:06:13.314Z,103404.47
2019-03-29T01:08:47.732Z,103398.50
2019-03-29T01:11:21.978Z,103394.64
2019-03-29T01:13:56.269Z,103390.52
2019-03-29T01:16:30.658Z,103391.38
2019-03-29T01:19:05.096Z,103388.68
2019-03-29T01:21:39.981Z,103387.33
2019-03-29T01:24:14.449Z,103387.72
2019-03-29T01:26:49.004Z,103393.02
2019-03-29T01:29:23.311Z,103383.52
2019-03-29T01:31:57.885Z,103382.08
2019-03-29T01:34:32.179Z,103384.78
2019-03-29T01:37:06.428Z,103381.05
2019-03-29T01:39:40.961Z,103375.98
2019-03-29T01:42:15.671Z,103380.39
2019-03-29T01:44:49.925Z,103378.84
2019-03-29T01:47:24.421Z,103374.55
2019-03-29T01:49:58.699Z,103377.43
2019-03-29T01:52:32.926Z,103370.34
2019-03-29T01:55:07.903Z,103369.49
2019-03-29T01:57:42.136Z,103361.05
2019-03-29T02:00:24.908Z,103362.78
2019-03-29T02:02:59.337Z,103360.06
2019-03-29T02:05:33.605Z,103357.59
2019-03-29T02:08:08.130Z,103360.74
2019-03-29T02:10:42.421Z,103354.80
2019-03-29T02:13:16.661Z,103346.59
2019-03-29T02:15:51.123Z,103347.22
2019-03-29T02:18:25.357Z,103346.42
2019-03-29T02:20:59.916Z,103340.37
2019-03-29T02:23:34.155Z,103338.33
2019-03-29T02:26:08.929Z,103337.73
2019-03-29T02:28:43.352Z,103330.81
2019-03-29T02:31:18.497Z,103335.61
2019-03-29T02:33:52.739Z,103332.29
2019-03-29T02:36:27.026Z,103335.27
2019-03-29T02:39:01.269Z,103336.90
2019-03-29T02:41:35.785Z,103332.13
2019-03-29T02:44:11.097Z,103337.22
2019-03-29T02:46:45.385Z,103340.45
2019-03-29T02:49:19.626Z,103337.09
2019-03-29T02:51:54.235Z,103335.41
2019-03-29T02:54:28.721Z,103341.81
2019-03-29T02:57:03.002Z,103340.60
2019-03-29T02:59:37.327Z,103337.21
2019-03-29T03:02:11.709Z,103340.30
2019-03-29T03:04:45.950Z,103339.57
2019-03-29T03:07:20.243Z,103339.57
2019-03-29T03:09:55.073Z,103334.05
2019-03-29T03:12:29.341Z,103328.69
2019-03-29T03:15:03.749Z,103332.80
2019-03-29T03:17:38.667Z,103339.73
2019-03-29T03:20:15.710Z,103339.73
2019-03-29T03:22:50.164Z,103334.87
2019-03-29T03:25:24.404Z,103333.02
2019-03-29T03:27:59.077Z,103333.02
2019-03-29T03:30:33.334Z,103324.73
2019-03-29T03:33:07.609Z,103324.80
2019-03-29T03:35:41.997Z,103324.80
2019-03-29T03:38:16.573Z,103319.69
2019-03-29T03:40:50.821Z,103319.09
2019-03-29T03:43:25.090Z,103321.98
2019-03-29T03:45:59.752Z,103321.98
2019-03-29T03:48:34.073Z,103312.55
2019-03-29T03:51:08.714Z,103312.55
2019-03-29T03:53:43.067Z,103322.72
2019-03-29T03:56:19.312Z,103311.62
2019-03-29T03:58:53.947Z,103309.52
2019-03-29T04:01:28.272Z,103309.52
2019-03-29T04:04:02.561Z,103320.56
2019-03-29T04:06:36.853Z,103311.41
2019-03-29T04:09:11.457Z,103318.25
2019-03-29T04:11:45.695Z,103309.96
2019-03-29T04:14:19.982Z,103309.96
2019-03-29T04:16:54.219Z,103303.05
2019-03-29T04:19:28.499Z,103315.22
2019-03-29T04:22:02.742Z,103316.62
2019-03-29T04:24:37.278Z,103316.62
2019-03-29T04:27:11.521Z,103314.47
2019-03-29T04:29:45.805Z,103307.89
2019-03-29T04:32:20.043Z,103312.05
2019-03-29T04:34:54.679Z,103313.40
2019-03-29T04:37:28.916Z,103311.80
2019-03-29T04:40:07.670Z,103311.80
2019-03-29T04:42:39.226Z,103306.20
2019-03-29T04:45:13.645Z,103306.20
2019-03-29T04:47:48.095Z,103310.23
2019-03-29T04:50:22.641Z,103307.09
2019-03-29T04:52:57.063Z,103314.69
2019-03-29T04:55:31.374Z,103314.69
2019-03-29T04:58:05.988Z,103313.20
2019-03-29T05:00:40.280Z,103313.20
2019-03-29T05:03:14.512Z,103303.92
2019-03-29T05:05:49.120Z,103304.80
2019-03-29T05:08:23.629Z,103308.06
2019-03-29T05:10:58.166Z,103307.14
2019-03-29T05:13:32.401Z,103312.38
2019-03-29T05:16:06.683Z,103313.24
2019-03-29T05:18:41.868Z,103312.78
2019-03-29T05:21:16.154Z,103312.78
2019-03-29T05:23:50.675Z,103306.96
2019-03-29T05:26:25.534Z,103317.50
2019-03-29T05:28:59.940Z,103313.38
2019-03-29T05:31:34.213Z,103313.06
2019-03-29T05:34:08.681Z,103317.72
2019-03-29T05:36:43.196Z,103315.19
2019-03-29T05:39:17.423Z,103313.64
2019-03-29T05:41:52.139Z,103316.02
2019-03-29T05:44:26.722Z,103310.30
2019-03-29T05:47:03.817Z,103314.27
2019-03-29T05:49:38.778Z,103308.69
2019-03-29T05:52:13.413Z,103313.43
2019-03-29T05:54:47.922Z,103312.91
2019-03-29T05:57:22.437Z,103308.77
2019-03-29T05:59:56.754Z,103306.30
2019-03-29T06:02:31.026Z,103311.51
2019-03-29T06:05:05.427Z,103311.39
2019-03-29T06:07:39.724Z,103314.55
2019-03-29T06:10:14.117Z,103312.62
2019-03-29T06:12:48.399Z,103306.33
2019-03-29T06:15:22.647Z,103310.81
2019-03-29T06:17:57.004Z,103320.38
2019-03-29T06:20:31.239Z,103320.38
2019-03-29T06:23:05.519Z,103316.12
2019-03-29T06:25:40.025Z,103311.05
2019-03-29T06:28:14.309Z,103309.94
2019-03-29T06:30:48.633Z,103298.35
2019-03-29T06:33:23.261Z,103298.35
2019-03-29T06:35:59.627Z,103311.27
2019-03-29T06:38:36.555Z,103302.17
2019-03-29T06:41:10.813Z,103307.83
2019-03-29T06:43:45.086Z,103300.76
2019-03-29T06:46:19.326Z,103300.76
2019-03-29T06:48:53.614Z,103313.88
2019-03-29T06:51:28.157Z,103309.73
2019-03-29T06:54:02.510Z,103309.73
2019-03-29T06:56:37.369Z,103300.31
2019-03-29T06:59:11.638Z,103311.95
2019-03-29T07:01:46.496Z,103311.95
2019-03-29T07:04:20.919Z,103298.42
2019-03-29T07:06:55.157Z,103306.41
2019-03-29T07:09:29.425Z,103306.41
2019-03-29T07:12:03.667Z,103307.52
2019-03-29T07:14:38.137Z,103306.23
2019-03-29T07:17:12.382Z,103307.72
2019-03-29T07:19:46.674Z,103307.72
2019-03-29T07:22:20.916Z,103305.73
2019-03-29T07:24:55.200Z,103302.75
2019-03-29T07:27:43.496Z,103310.41
2019-03-29T07:30:06.376Z,103294.56
2019-03-29T07:32:40.611Z,103295.36
2019-03-29T07:35:14.880Z,103295.52
2019-03-29T07:37:49.117Z,103297.28
2019-03-29T07:40:23.406Z,103296.56
2019-03-29T07:42:58.052Z,103297.94
2019-03-29T07:45:32.432Z,103300.05
2019-03-29T07:48:06.675Z,103300.20
2019-03-29T07:50:41.205Z,103304.45
2019-03-29T07:53:15.913Z,103303.09
2019-03-29T07:55:50.175Z,103305.36
2019-03-29T07:58:24.425Z,103303.06
2019-03-29T08:00:59.029Z,103305.02
2019-03-29T08:03:33.267Z,103300.95
2019-03-29T08:06:07.549Z,103298.94
2019-03-29T08:08:41.791Z,103300.34
2019-03-29T08:11:26.032Z,103304.36
2019-03-29T08:13:52.034Z,103299.17
2019-03-29T08:16:26.333Z,103296.47
2019-03-29T08:19:00.888Z,103295.52
2019-03-29T08:21:35.514Z,103302.27
2019-03-29T08:24:09.805Z,103301.70
2019-03-29T08:26:44.055Z,103309.16
2019-03-29T08:29:18.307Z,103302.89
2019-03-29T08:31:55.446Z,103306.62
2019-03-29T08:34:28.910Z,103306.19
2019-03-29T08:37:03.207Z,103314.83
2019-03-29T08:39:37.460Z,103316.38
2019-03-29T08:42:11.732Z,103312.22
2019-03-29T08:44:46.298Z,103311.22
2019-03-29T08:47:20.578Z,103310.09
2019-03-29T08:49:54.855Z,103316.42
2019-03-29T08:52:29.121Z,103320.53
2019-03-29T08:55:03.995Z,103316.98
2019-03-29T08:57:38.287Z,103309.48
2019-03-29T09:00:15.791Z,103317.45
2019-03-29T09:02:49.212Z,103318.76
2019-03-29T09:05:23.809Z,103325.05
2019-03-29T09:07:59.128Z,103322.66
2019-03-29T09:10:33.446Z,103315.84
2019-03-29T09:13:07.755Z,103314.73
2019-03-29T09:15:42.010Z,103316.91
2019-03-29T09:18:16.674Z,103311.63
2019-03-29T09:20:50.926Z,103313.61
2019-03-29T09:23:25.345Z,103310.66
2019-03-29T09:25:59.604Z,103304.92
2019-03-29T09:28:33.897Z,103303.66
2019-03-29T09:31:08.226Z,103300.92
2019-03-29T09:33:42.786Z,103302.14
2019-03-29T09:36:17.029Z,103304.15
2019-03-29T09:38:51.399Z,103307.73
2019-03-29T09:41:25.920Z,103298.39
2019-03-29T09:44:00.191Z,103297.26
2019-03-29T09:46:34.459Z,103290.34
2019-03-29T09:49:08.766Z,103294.13
2019-03-29T09:51:43.001Z,103296.07
2019-03-29T09:54:20.198Z,103280.47
2019-03-29T09:56:53.294Z,103279.58
2019-03-29T09:59:27.593Z,103284.37
2019-03-29T10:02:01.832Z,103287.17
2019-03-29T10:04:36.148Z,103283.37
2019-03-29T10:07:10.398Z,103275.88
2019-03-29T10:09:44.691Z,103280.27
2019-03-29T10:12:18.939Z,103284.71
2019-03-29T10:14:53.220Z,103280.55
2019-03-29T10:17:27.465Z,103278.30
2019-03-29T10:20:01.782Z,103270.28
2019-03-29T10:22:36.029Z,103264.53
2019-03-29T10:25:19.038Z,103270.37
2019-03-29T10:27:46.570Z,103275.01
2019-03-29T10:30:46.187Z,103271.03
2019-03-29T10:33:18.894Z,103270.17
2019-03-29T10:35:53.261Z,103259.91
2019-03-29T10:38:28.785Z,103260.69
2019-03-29T10:41:03.135Z,103258.13
2019-03-29T10:43:37.650Z,103258.03
2019-03-29T10:46:11.970Z,103261.81
2019-03-29T10:48:46.221Z,103256.83
2019-03-29T10:51:20.595Z,103249.38
2019-03-29T10:53:55.185Z,103237.92
2019-03-29T10:56:34.257Z,103238.86
2019-03-29T10:59:05.860Z,103240.03
2019-03-29T11:01:40.474Z,103234.83
2019-03-29T11:04:14.797Z,103228.81
2019-03-29T11:06:49.260Z,103230.06
2019-03-29T11:09:23.513Z,103227.76
2019-03-29T11:11:58.367Z,103203.61
2019-03-29T11:14:33.341Z,103210.68
2019-03-29T11:17:08.293Z,103221.73
2019-03-29T11:19:42.841Z,103223.52
2019-03-29T11:22:17.304Z,103209.90
2019-03-29T11:24:51.725Z,103211.19
2019-03-29T11:27:26.010Z,103209.05
2019-03-29T11:30:00.560Z,103200.33
2019-03-29T11:32:34.895Z,103195.32
2019-03-29T11:35:09.306Z,103187.04
2019-03-29T11:37:43.615Z,103174.46
2019-03-29T11:40:18.230Z,103173.28
2019-03-29T11:42:52.549Z,103180.67
2019-03-29T11:45:27.046Z,103181.95
2019-03-29T11:48:08.969Z,103179.04
2019-03-29T11:50:37.887Z,103174.34
2019-03-29T11:53:12.498Z,103161.03
2019-03-29T11:55:46.839Z,103161.69
2019-03-29T11:58:21.154Z,103161.18
2019-03-29T12:00:55.662Z,103161.65
2019-03-29T12:03:29.956Z,103154.34
2019-03-29T12:06:04.361Z,103151.67
2019-03-29T12:08:38.641Z,103154.54
2019-03-29T12:11:12.981Z,103145.97
2019-03-29T12:13:47.301Z,103144.31
2019-03-29T12:16:21.633Z,103145.97
2019-03-29T12:18:55.897Z,103146.86
2019-03-29T12:21:30.138Z,103146.63
2019-03-29T12:24:04.703Z,103148.80
2019-03-29T12:26:38.947Z,103147.17
2019-03-29T12:29:13.320Z,103135.77
2019-03-29T12:31:47.643Z,103134.81
2019-03-29T12:34:21.977Z,103125.64
2019-03-29T12:36:56.219Z,103120.80
2019-03-29T12:39:30.508Z,103123.62
2019-03-29T12:42:05.031Z,103126.34
2019-03-29T12:44:39.471Z,103128.36
2019-03-29T12:47:13.792Z,103120.54
2019-03-29T12:49:48.305Z,103121.42
2019-03-29T12:52:22.563Z,103119.95
2019-03-29T12:54:57.141Z,103117.42
2019-03-29T12:57:31.382Z,103115.44
2019-03-29T13:00:06.330Z,103119.38
2019-03-29T13:02:42.248Z,103111.67
2019-03-29T13:05:17.076Z,103105.03
2019-03-29T13:07:53.171Z,103106.03
2019-03-29T13:10:27.450Z,103104.27
2019-03-29T13:13:01.801Z,103101.30
2019-03-29T13:15:36.110Z,103090.75
2019-03-29T13:18:10.698Z,103083.75
2019-03-29T13:20:45.071Z,103074.50
2019-03-29T13:23:19.336Z,103062.91
2019-03-29T13:25:53.705Z,103062.46
2019-03-29T13:28:27.949Z,103066.64
2019-03-29T13:31:02.669Z,103063.47
2019-03-29T13:33:37.002Z,103055.89
2019-03-29T13:36:11.738Z,103045.58
2019-03-29T13:38:46.286Z,103029.45
2019-03-29T13:41:20.849Z,103023.67
2019-03-29T13:43:55.088Z,103022.06
2019-03-29T13:46:29.368Z,103026.17
2019-03-29T13:49:04.050Z,103017.89
2019-03-29T13:51:38.370Z,103011.88
2019-03-29T13:54:12.623Z,103015.48
2019-03-29T13:56:47.267Z,103009.11
2019-03-29T13:59:21.510Z,103001.41
2019-03-29T14:01:55.796Z,102998.59
2019-03-29T14:04:30.188Z,102983.85
2019-03-29T14:07:04.565Z,102983.11
2019-03-29T14:09:38.829Z,102979.52
2019-03-29T14:12:13.124Z,102983.53
2019-03-29T14:14:47.928Z,102972.03
2019-03-29T14:17:22.209Z,102958.72
2019-03-29T14:19:56.795Z,102956.52
2019-03-29T14:22:31.077Z,102952.28
2019-03-29T14:25:06.642Z,102956.90
2019-03-29T14:27:40.922Z,102951.91
2019-03-29T14:30:15.433Z,102948.30
2019-03-29T14:32:49.801Z,102938.09
2019-03-29T14:35:24.044Z,102929.14
2019-03-29T14:37:58.346Z,102932.63
2019-03-29T14:40:32.643Z,102921.27
2019-03-29T14:43:06.930Z,102917.03
2019-03-29T14:45:41.169Z,102924.43
2019-03-29T14:48:15.553Z,102918.11
2019-03-29T14:50:49.796Z,102918.71
2019-03-29T14:53:24.160Z,102909.45
2019-03-29T14:55:58.406Z,102901.98
2019-03-29T14:58:33.022Z,102896.02
2019-03-29T15:01:07.549Z,102886.92
2019-03-29T15:03:41.908Z,102880.30
2019-03-29T15:06:17.089Z,102877.98
2019-03-29T15:08:51.434Z,102876.08
2019-03-29T15:11:25.676Z,102870.87
2019-03-29T15:13:59.985Z,102859.92
2019-03-29T15:16:34.223Z,102859.52
2019-03-29T15:19:08.877Z,102852.84
2019-03-29T15:21:43.121Z,102856.25
2019-03-29T15:24:17.737Z,102853.34
2019-03-29T15:26:51.991Z,102850.23
2019-03-29T15:29:26.283Z,102839.08
2019-03-29T15:32:00.524Z,102820.48
2019-03-29T15:34:35.308Z,102811.93
2019-03-29T15:37:10.130Z,102806.33
2019-03-29T15:39:44.636Z,102805.81
2019-03-29T15:42:20.515Z,102795.97
2019-03-29T15:44:55.069Z,102791.48
2019-03-29T15:47:29.321Z,102776.94
2019-03-29T15:50:03.915Z,102784.06
2019-03-29T15:52:38.162Z,102776.41
2019-03-29T15:55:12.523Z,102772.97
2019-03-29T15:57:46.770Z,102770.20
2019-03-29T16:00:21.387Z,102774.77
2019-03-29T16:02:55.645Z,102775.22
2019-03-29T16:05:29.952Z,102766.66
2019-03-29T16:08:04.668Z,102766.66
2019-03-29T16:10:41.175Z,102760.53
2019-03-29T16:13:15.030Z,102756.41
2019-03-29T16:15:49.355Z,102756.36
2019-03-29T16:18:23.908Z,102755.64
2019-03-29T16:20:58.784Z,102756.07
2019-03-29T16:23:33.238Z,102746.11
2019-03-29T16:26:08.010Z,102742.73
2019-03-29T16:28:42.252Z,102744.91
2019-03-29T16:31:16.529Z,102746.73
2019-03-29T16:33:50.771Z,102739.98
2019-03-29T16:36:25.097Z,102734.64
2019-03-29T16:38:59.341Z,102732.00
2019-03-29T16:41:33.651Z,102726.92
2019-03-29T16:44:07.889Z,102724.66
2019-03-29T16:46:42.556Z,102724.55
2019-03-29T16:49:16.870Z,102720.03
2019-03-29T16:51:51.295Z,102714.80
2019-03-29T16:54:25.886Z,102710.81
2019-03-29T16:57:00.169Z,102710.63
2019-03-29T16:59:34.417Z,102704.80
2019-03-29T17:02:08.829Z,102700.17
2019-03-29T17:04:43.076Z,102695.32
2019-03-29T17:07:17.677Z,102704.76
2019-03-29T17:09:52.048Z,102703.58
2019-03-29T17:12:26.335Z,102694.02
2019-03-29T17:15:00.591Z,102693.91
2019-03-29T17:17:35.087Z,102685.48
2019-03-29T17:20:09.724Z,102686.16
2019-03-29T17:22:44.253Z,102685.92
2019-03-29T17:25:18.507Z,102678.54
2019-03-29T17:27:53.127Z,102673.20
2019-03-29T17:30:39.123Z,102680.50
2019-03-29T17:33:13.400Z,102671.73
2019-03-29T17:35:47.652Z,102666.87
2019-03-29T17:38:21.950Z,102670.24
2019-03-29T17:40:56.518Z,102675.29
2019-03-29T17:43:31.171Z,102674.05
2019-03-29T17:46:16.075Z,102671.04
2019-03-29T17:48:42.390Z,102669.66
2019-03-29T17:51:16.652Z,102670.59
2019-03-29T17:53:50.920Z,102665.38
2019-03-29T17:56:25.167Z,102674.95
2019-03-29T17:58:59.439Z,102669.72
2019-03-29T18:01:34.034Z,102677.37
2019-03-29T18:04:08.314Z,102671.73
2019-03-29T18:06:42.647Z,102674.91
2019-03-29T18:09:17.195Z,102670.78
2019-03-29T18:11:51.470Z,102668.62
2019-03-29T18:14:25.746Z,102662.95
2019-03-29T18:17:00.003Z,102662.25
2019-03-29T18:19:34.322Z,102659.55
2019-03-29T18:22:08.740Z,102665.10
2019-03-29T18:24:43.056Z,102664.76
2019-03-29T18:27:17.295Z,102665.23
2019-03-29T18:29:51.581Z,102665.39
2019-03-29T18:32:25.907Z,102671.19
2019-03-29T18:35:00.500Z,102668.95
2019-03-29T18:37:34.914Z,102668.59
2019-03-29T18:40:15.082Z,102669.69
2019-03-29T18:42:49.318Z,102670.89
2019-03-29T18:45:23.633Z,102671.27
2019-03-29T18:47:57.879Z,102670.12
2019-03-29T18:50:32.314Z,102668.62
2019-03-29T18:53:06.563Z,102667.36
2019-03-29T18:55:40.978Z,102664.14
2019-03-29T18:58:15.219Z,102664.98
2019-03-29T19:00:49.510Z,102670.83
2019-03-29T19:03:23.763Z,102663.64
2019-03-29T19:05:58.059Z,102664.50
2019-03-29T19:08:32.309Z,102659.39
2019-03-29T19:11:06.605Z,102661.83
2019-03-29T19:13:42.115Z,102667.18
2019-03-29T19:16:16.398Z,102662.31
2019-03-29T19:18:50.653Z,102668.17
2019-03-29T19:21:25.749Z,102670.95
2019-03-29T19:24:00.092Z,102675.00
2019-03-29T19:26:34.385Z,102667.64
2019-03-29T19:29:08.630Z,102669.43
2019-03-29T19:31:42.950Z,102668.55
2019-03-29T19:34:17.207Z,102669.77
2019-03-29T19:36:51.515Z,102675.34
2019-03-29T19:39:25.761Z,102663.98
2019-03-29T19:42:00.042Z,102667.28
2019-03-29T19:44:34.292Z,102668.56
2019-03-29T19:47:13.596Z,102670.17
2019-03-29T19:49:44.632Z,102664.90
2019-03-29T19:52:18.921Z,102664.83
2019-03-29T19:54:53.178Z,102663.64
2019-03-29T19:57:27.445Z,102663.30
2019-03-29T20:00:01.890Z,102663.08
2019-03-29T20:02:36.198Z,102661.84
2019-03-29T20:05:29.278Z,102655.01
2019-03-29T20:08:03.740Z,102655.20
2019-03-29T20:10:38.234Z,102657.38
2019-03-29T20:13:12.520Z,102652.38
2019-03-29T20:15:46.967Z,102648.03
2019-03-29T20:18:21.253Z,102646.41
2019-03-29T20:20:55.494Z,102648.83
2019-03-29T20:23:29.793Z,102650.76
2019-03-29T20:26:04.345Z,102651.09
2019-03-29T20:28:38.949Z,102659.20
2019-03-29T20:31:13.173Z,102647.05
2019-03-29T20:33:47.479Z,102647.49
2019-03-29T20:36:23.076Z,102641.56
2019-03-29T20:38:57.968Z,102642.14
2019-03-29T20:41:32.209Z,102644.59
2019-03-29T20:44:06.632Z,102646.41
2019-03-29T20:46:40.874Z,102642.94
2019-03-29T20:49:15.722Z,102638.41
2019-03-29T20:51:49.962Z,102635.64
2019-03-29T20:54:24.964Z,102628.09
2019-03-29T20:56:59.214Z,102629.33
2019-03-29T20:59:33.479Z,102625.56
2019-03-29T21:02:07.708Z,102632.89
2019-03-29T21:04:41.989Z,102624.78
2019-03-29T21:07:16.230Z,102625.17
2019-03-29T21:09:50.786Z,102618.81
2019-03-29T21:12:25.284Z,102619.57
2019-03-29T21:14:59.572Z,102623.71
2019-03-29T21:17:34.082Z,102618.44
2019-03-29T21:20:08.933Z,102616.80
2019-03-29T21:22:43.486Z,102613.80
2019-03-29T21:25:17.759Z,102611.10
2019-03-29T21:27:52.160Z,102607.15
2019-03-29T21:30:26.882Z,102607.31
2019-03-29T21:33:01.125Z,102607.31
2019-03-29T21:35:35.677Z,102604.91
2019-03-29T21:38:09.993Z,102598.83
2019-03-29T21:40:44.282Z,102597.88
2019-03-29T21:43:18.513Z,102598.27
2019-03-29T21:45:52.800Z,102597.39
2019-03-29T21:48:28.914Z,102594.32
2019-03-29T21:51:03.379Z,102594.32
2019-03-29T21:53:37.646Z,102595.38
2019-03-29T21:56:12.005Z,102593.43
2019-03-29T21:58:46.565Z,102593.70
2019-03-29T22:01:21.178Z,102593.70
2019-03-29T22:03:55.416Z,102582.83
2019-03-29T22:06:29.712Z,102589.84
2019-03-29T22:09:06.280Z,102580.80
2019-03-29T22:11:40.844Z,102582.20
2019-03-29T22:14:15.168Z,102582.20
2019-03-29T22:16:49.762Z,102583.46
2019-03-29T22:19:24.561Z,102576.22
2019-03-29T22:21:58.846Z,102570.65
2019-03-29T22:24:33.079Z,102570.26
2019-03-29T22:27:07.365Z,102570.26
2019-03-29T22:29:41.904Z,102565.44
2019-03-29T22:32:16.444Z,102570.14
2019-03-29T22:34:50.684Z,102560.67
2019-03-29T22:37:25.008Z,102559.59
2019-03-29T22:39:59.690Z,102554.59
2019-03-29T22:42:34.014Z,102554.59
2019-03-29T22:45:09.469Z,102551.59
2019-03-29T22:47:43.778Z,102556.59
2019-03-29T22:50:18.189Z,102557.07
2019-03-29T22:52:54.545Z,102557.07
2019-03-29T22:55:29.011Z,102552.03
2019-03-29T22:58:03.372Z,102545.91
2019-03-29T23:00:40.818Z,102545.91
2019-03-29T23:03:15.199Z,102531.44
2019-03-29T23:05:49.510Z,102535.78
2019-03-29T23:08:23.798Z,102533.56
2019-03-29T23:10:58.048Z,102530.42
2019-03-29T23:13:32.352Z,102530.42
2019-03-29T23:16:06.902Z,102524.72
2019-03-29T23:18:41.693Z,102526.27
2019-03-29T23:21:15.931Z,102519.49
2019-03-29T23:23:50.209Z,102514.65
2019-03-29T23:26:24.454Z,102516.55
2019-03-29T23:28:58.754Z,102509.83
2019-03-29T23:31:33.005Z,102503.49
2019-03-29T23:34:08.073Z,102504.11
2019-03-29T23:36:42.314Z,102499.96
2019-03-29T23:39:16.621Z,102499.06
2019-03-29T23:41:51.197Z,102499.06
2019-03-29T23:44:25.752Z,102492.59
2019-03-29T23:47:00.261Z,102492.59
2019-03-29T23:49:36.327Z,102489.92
2019-03-29T23:52:10.568Z,102481.19
2019-03-29T23:54:44.838Z,102473.05
2019-03-29T23:57:19.108Z,102467.59
2019-03-29T23:59:53.387Z,102465.62
